Time;durP1;ratioP1;P1;durP2;ratioP2;P2;SDS_P1;SDS_P2;PMS_P1;PMS_P2;Temp;Humidity;BMP_temperature;BMP_pressure;BME280_temperature;BME280_humidity;BME280_pressure;Samples;Min_cycle;Max_cycle;Signal;HPM_P1;HPM_P2
2022/01/08 00:00:22;;;;;;;5.43;1.52;;;2.10;99.90;;;;;;5116183;27;20040;-74
2022/01/08 00:02:48;;;;;;;11.18;1.77;;;2.10;99.90;;;;;;5134022;27;20043;-74
2022/01/08 00:05:14;;;;;;;10.88;2.22;;;2.00;99.90;;;;;;5133448;27;20074;-74
2022/01/08 00:07:40;;;;;;;8.07;1.50;;;2.00;99.90;;;;;;5133260;27;20043;-74
2022/01/08 00:10:07;;;;;;;13.70;1.52;;;2.00;99.90;;;;;;5133819;27;20043;-74
2022/01/08 00:12:32;;;;;;;10.68;1.73;;;2.00;99.90;;;;;;5132766;27;20456;-74
2022/01/08 00:14:58;;;;;;;10.10;1.52;;;2.00;99.90;;;;;;5116933;27;20039;-74
2022/01/08 00:17:24;;;;;;;7.65;1.70;;;2.00;99.90;;;;;;5133702;27;20482;-74
2022/01/08 00:19:51;;;;;;;5.68;1.42;;;2.00;99.90;;;;;;5116132;27;20043;-74
2022/01/08 00:22:17;;;;;;;8.10;1.63;;;2.20;99.90;;;;;;5133655;27;20506;-74
2022/01/08 00:24:42;;;;;;;8.50;1.65;;;2.20;99.90;;;;;;5133620;27;20130;-74
2022/01/08 00:27:08;;;;;;;9.02;2.15;;;2.20;99.90;;;;;;5132681;27;20124;-74
2022/01/08 00:29:34;;;;;;;7.53;1.60;;;1.90;99.90;;;;;;5133752;27;20474;-74
2022/01/08 00:32:00;;;;;;;7.30;1.63;;;1.90;99.90;;;;;;5116702;27;20501;-74
2022/01/08 00:34:25;;;;;;;7.28;1.90;;;1.90;99.90;;;;;;5132605;27;20402;-74
2022/01/08 00:36:51;;;;;;;7.55;1.67;;;1.90;99.90;;;;;;5116363;27;20047;-74
2022/01/08 00:39:17;;;;;;;8.68;2.03;;;2.00;99.90;;;;;;5133444;27;20091;-74
2022/01/08 00:41:43;;;;;;;7.90;1.88;;;1.80;99.90;;;;;;5132210;27;20039;-74
2022/01/08 00:44:08;;;;;;;12.32;2.22;;;1.90;99.90;;;;;;5132829;27;20051;-74
2022/01/08 00:46:34;;;;;;;16.55;3.05;;;1.90;99.90;;;;;;5133306;27;20043;-74
2022/01/08 00:49:03;;;;;;;11.20;2.90;;;1.90;99.90;;;;;;5115737;27;20394;-74
2022/01/08 00:51:29;;;;;;;12.23;2.30;;;1.90;99.90;;;;;;5133135;27;20082;-74
2022/01/08 00:53:55;;;;;;;8.82;2.08;;;1.90;99.90;;;;;;5133286;28;20074;-74
2022/01/08 00:56:20;;;;;;;8.73;2.22;;;1.90;99.90;;;;;;5132061;27;20047;-74
2022/01/08 00:58:46;;;;;;;4.50;2.15;;;1.90;99.90;;;;;;5134661;27;20035;-74
2022/01/08 01:01:12;;;;;;;8.98;2.35;;;1.90;99.90;;;;;;5133464;28;20050;-74
2022/01/08 01:03:38;;;;;;;11.82;2.50;;;1.80;99.90;;;;;;5132441;28;20043;-74
2022/01/08 01:06:06;;;;;;;10.40;2.55;;;2.10;99.90;;;;;;5134462;28;20043;-74
2022/01/08 01:08:33;;;;;;;9.98;2.75;;;2.20;99.90;;;;;;5132968;28;20494;-74
2022/01/08 01:10:58;;;;;;;7.78;2.65;;;2.10;99.90;;;;;;5132226;28;20045;-74
2022/01/08 01:13:24;;;;;;;7.60;2.22;;;1.80;99.90;;;;;;5133415;28;20398;-74
2022/01/08 01:15:50;;;;;;;28.95;5.32;;;1.80;99.90;;;;;;5132478;28;20607;-74
2022/01/08 01:18:16;;;;;;;8.98;2.90;;;1.80;99.90;;;;;;5115917;28;20477;-74
2022/01/08 01:20:42;;;;;;;6.68;2.53;;;1.80;99.90;;;;;;5115359;28;20072;-74
2022/01/08 01:23:19;;;;;;;16.17;3.20;;;1.80;99.90;;;;;;5114923;28;20075;-75
2022/01/08 01:25:56;;;;;;;10.25;3.50;;;1.90;99.90;;;;;;5132794;28;20402;-74
2022/01/08 01:28:36;;;;;;;9.32;3.30;;;2.10;99.90;;;;;;5133051;28;20043;-74
2022/01/08 01:47:02;;;;;;;8.23;1.40;;;2.00;99.90;;;;;;5132651;28;20058;-74
2022/01/08 01:49:33;;;;;;;6.15;1.63;;;1.90;99.90;;;;;;5132590;28;20031;-74
2022/01/08 01:52:00;;;;;;;3.72;1.30;;;1.90;99.90;;;;;;5131946;28;20035;-75
2022/01/08 01:54:27;;;;;;;5.60;1.10;;;1.90;99.90;;;;;;5115344;28;20039;-75
2022/01/08 01:56:54;;;;;;;9.65;1.73;;;1.90;99.90;;;;;;5132404;28;20118;-75
2022/01/08 01:59:19;;;;;;;9.88;2.20;;;1.90;99.90;;;;;;5131847;28;20055;-75
2022/01/08 02:01:45;;;;;;;6.65;1.60;;;2.40;99.90;;;;;;5132588;28;20050;-74
2022/01/08 02:04:11;;;;;;;10.43;1.45;;;1.80;99.90;;;;;;5132691;28;20122;-75
2022/01/08 02:06:37;;;;;;;6.90;1.88;;;2.40;99.90;;;;;;5133003;27;20406;-75
2022/01/08 02:09:03;;;;;;;8.00;1.85;;;1.80;99.90;;;;;;5135251;27;20051;-75
2022/01/08 02:11:28;;;;;;;11.48;2.45;;;1.80;99.90;;;;;;5136195;27;20039;-74
2022/01/08 02:14:04;;;;;;;3.85;1.58;;;1.80;99.90;;;;;;5135321;27;20390;-75
2022/01/08 02:16:30;;;;;;;7.55;1.50;;;1.80;99.90;;;;;;5136217;27;20115;-74
2022/01/08 02:18:55;;;;;;;11.02;1.55;;;1.70;99.90;;;;;;5136140;27;20051;-74
2022/01/08 02:21:21;;;;;;;7.53;1.67;;;2.10;99.90;;;;;;5135735;27;20065;-75
2022/01/08 02:23:48;;;;;;;5.13;1.45;;;1.70;99.90;;;;;;5137048;27;20488;-75
2022/01/08 02:26:14;;;;;;;11.60;1.60;;;1.60;99.90;;;;;;5135986;27;20077;-75
2022/01/08 02:28:41;;;;;;;8.13;1.50;;;2.40;99.90;;;;;;5135873;27;20079;-75
2022/01/08 02:31:07;;;;;;;2.70;1.20;;;1.60;99.90;;;;;;5136922;27;20047;-75
2022/01/08 02:33:34;;;;;;;6.30;1.50;;;2.00;99.90;;;;;;5135042;27;20051;-74
2022/01/08 02:36:07;;;;;;;8.05;1.60;;;1.60;99.90;;;;;;5136083;27;20593;-75
2022/01/08 02:38:34;;;;;;;7.25;1.45;;;1.60;99.90;;;;;;5135672;27;20043;-74
2022/01/08 02:41:03;;;;;;;6.03;1.63;;;1.60;99.90;;;;;;5134664;27;20082;-75
2022/01/08 02:43:32;;;;;;;10.40;1.90;;;2.40;99.90;;;;;;5135567;27;20043;-75
2022/01/08 02:45:59;;;;;;;4.45;1.73;;;1.60;99.90;;;;;;5136831;27;20055;-74
2022/01/08 02:48:24;;;;;;;7.50;1.60;;;1.60;99.90;;;;;;5134617;27;20047;-75
2022/01/08 02:50:50;;;;;;;7.75;1.70;;;1.60;99.90;;;;;;5134821;27;20050;-74
2022/01/08 02:53:16;;;;;;;6.70;1.92;;;1.70;99.90;;;;;;5135592;27;20037;-75
2022/01/08 02:55:41;;;;;;;11.13;2.25;;;1.70;99.90;;;;;;5134343;27;20470;-74
2022/01/08 02:58:07;;;;;;;5.03;1.35;;;1.60;99.90;;;;;;5135304;27;20051;-75
2022/01/08 03:00:33;;;;;;;9.75;1.73;;;2.10;99.90;;;;;;5118198;27;20096;-75
2022/01/08 03:02:59;;;;;;;7.95;1.45;;;1.70;99.90;;;;;;5134378;27;20046;-74
2022/01/08 03:05:24;;;;;;;7.07;1.67;;;2.00;99.90;;;;;;5136200;27;20079;-75
2022/01/08 03:07:50;;;;;;;4.55;1.40;;;1.70;99.90;;;;;;5136516;27;20039;-75
2022/01/08 03:10:18;;;;;;;7.72;1.38;;;2.00;99.90;;;;;;5134128;27;20100;-75
2022/01/08 03:12:44;;;;;;;7.95;2.00;;;1.60;99.90;;;;;;5134369;27;20081;-75
2022/01/08 03:15:18;;;;;;;8.45;1.20;;;1.60;99.90;;;;;;5135311;27;20043;-75
2022/01/08 03:17:44;;;;;;;11.98;2.00;;;1.50;99.90;;;;;;5134888;27;20039;-75
2022/01/08 03:20:13;;;;;;;4.53;1.50;;;2.00;99.90;;;;;;5134734;27;20050;-75
2022/01/08 03:22:42;;;;;;;5.00;1.80;;;1.50;99.90;;;;;;5133918;27;20047;-75
2022/01/08 03:25:09;;;;;;;4.47;1.67;;;2.30;99.90;;;;;;5134765;27;20509;-75
2022/01/08 03:27:35;;;;;;;9.55;1.83;;;1.40;99.90;;;;;;5117220;27;20542;-75
2022/01/08 03:30:03;;;;;;;9.25;2.15;;;1.40;99.90;;;;;;5133875;27;20087;-75
2022/01/08 03:32:29;;;;;;;7.95;1.92;;;1.40;99.90;;;;;;5134480;27;20529;-75
2022/01/08 03:34:55;;;;;;;5.97;1.40;;;1.40;99.90;;;;;;5134762;27;20139;-75
2022/01/08 03:37:20;;;;;;;8.60;1.42;;;2.20;99.90;;;;;;5133581;27;20410;-75
2022/01/08 03:39:46;;;;;;;10.18;2.22;;;1.40;99.90;;;;;;5134474;27;20050;-75
2022/01/08 03:42:12;;;;;;;8.02;1.75;;;1.90;99.90;;;;;;5134247;27;20047;-75
2022/01/08 03:44:38;;;;;;;8.05;1.70;;;1.30;99.90;;;;;;5133256;27;20504;-75
2022/01/08 03:49:48;;;;;;;20.30;2.55;;;1.30;99.90;;;;;;5134176;27;20050;-75
2022/01/08 03:52:14;;;;;;;8.93;3.35;;;1.40;99.90;;;;;;5133374;27;20096;-75
2022/01/08 03:54:40;;;;;;;6.55;2.13;;;1.90;99.90;;;;;;5134237;27;20076;-75
2022/01/08 03:57:06;;;;;;;7.40;2.00;;;1.30;99.90;;;;;;5104568;27;20123;-75
2022/01/08 03:59:32;;;;;;;6.05;1.77;;;1.40;99.90;;;;;;5112168;28;20509;-75
2022/01/08 04:01:57;;;;;;;9.25;2.08;;;2.30;99.90;;;;;;5113383;28;20047;-75
2022/01/08 04:04:24;;;;;;;9.55;2.50;;;1.50;99.90;;;;;;5113384;28;20048;-75
2022/01/08 04:06:49;;;;;;;8.30;1.90;;;1.50;99.90;;;;;;5112455;28;20047;-75
2022/01/08 04:09:16;;;;;;;7.68;1.70;;;1.50;99.90;;;;;;5113753;28;20051;-75
2022/01/08 04:11:42;;;;;;;3.78;1.63;;;1.50;99.90;;;;;;5100838;28;20052;-75
2022/01/08 04:14:08;;;;;;;6.47;2.00;;;2.10;99.90;;;;;;5092775;28;20501;-75
2022/01/08 04:16:37;;;;;;;4.28;1.67;;;1.60;99.90;;;;;;5092716;28;20105;-75
2022/01/08 04:19:03;;;;;;;7.47;1.63;;;1.60;99.90;;;;;;5091872;28;20093;-75
2022/01/08 04:24:00;;;;;;;11.77;2.20;;;2.20;99.90;;;;;;5092996;28;20072;-75
2022/01/08 04:26:26;;;;;;;8.18;1.88;;;1.60;99.90;;;;;;5101048;28;20098;-75
2022/01/08 04:28:55;;;;;;;9.40;2.13;;;2.10;99.90;;;;;;5113196;28;20495;-75
2022/01/08 04:31:22;;;;;;;7.97;1.58;;;2.40;99.90;;;;;;5112697;28;20466;-75
2022/01/08 04:33:48;;;;;;;9.40;1.65;;;2.20;99.90;;;;;;5112241;28;20482;-75
2022/01/08 04:36:13;;;;;;;9.25;1.80;;;1.60;99.90;;;;;;5095916;28;20089;-75
2022/01/08 04:38:39;;;;;;;7.22;1.60;;;1.60;99.90;;;;;;5114267;28;20050;-75
2022/01/08 04:41:05;;;;;;;7.15;1.65;;;1.80;99.90;;;;;;5110383;28;20035;-75
2022/01/08 04:43:32;;;;;;;9.35;1.83;;;1.60;99.90;;;;;;5133059;27;20083;-75
2022/01/08 04:45:57;;;;;;;4.82;1.40;;;1.60;99.90;;;;;;5133304;27;20047;-75
2022/01/08 04:48:23;;;;;;;9.20;1.75;;;2.00;99.90;;;;;;5132455;27;20130;-75
2022/01/08 04:50:49;;;;;;;12.50;1.83;;;2.20;99.90;;;;;;5114623;28;20056;-75
2022/01/08 04:53:15;;;;;;;9.15;1.92;;;1.60;99.90;;;;;;5095935;28;20130;-75
2022/01/08 04:55:40;;;;;;;10.30;1.67;;;2.20;99.90;;;;;;5111744;28;20588;-75
2022/01/08 04:58:06;;;;;;;7.20;1.60;;;1.60;99.90;;;;;;5105841;28;20068;-75
2022/01/08 05:00:33;;;;;;;10.05;2.25;;;1.80;99.90;;;;;;5075511;28;20054;-75
2022/01/08 05:02:59;;;;;;;9.95;2.00;;;1.60;99.90;;;;;;5074795;28;20443;-75
2022/01/08 05:05:26;;;;;;;9.75;1.83;;;1.70;99.90;;;;;;5075475;28;20166;-75
2022/01/08 05:07:52;;;;;;;7.70;1.70;;;1.60;99.90;;;;;;5091512;28;20071;-75
2022/01/08 05:10:19;;;;;;;8.98;1.60;;;2.30;99.90;;;;;;5092469;28;20048;-75
2022/01/08 05:12:45;;;;;;;5.80;2.08;;;1.60;99.90;;;;;;5092071;28;20079;-75
2022/01/08 05:15:11;;;;;;;8.32;2.00;;;1.70;99.90;;;;;;5091268;28;20044;-75
2022/01/08 05:17:39;;;;;;;14.65;2.03;;;1.60;99.90;;;;;;5093521;28;20044;-75
2022/01/08 05:20:08;;;;;;;12.68;2.15;;;2.30;99.90;;;;;;5075536;28;20044;-75
2022/01/08 05:25:16;;;;;;;11.27;2.08;;;1.60;99.90;;;;;;5091933;28;20063;-75
2022/01/08 05:27:42;;;;;;;7.60;2.20;;;1.50;99.90;;;;;;5091829;28;20048;-75
2022/01/08 05:30:09;;;;;;;12.05;2.70;;;1.50;99.90;;;;;;5092482;28;20036;-75
2022/01/08 05:32:34;;;;;;;6.35;2.05;;;1.40;99.90;;;;;;5075420;28;20048;-75
2022/01/08 05:35:00;;;;;;;8.15;2.60;;;1.40;99.90;;;;;;5074972;28;20373;-75
2022/01/08 05:37:26;;;;;;;12.25;2.25;;;1.40;99.90;;;;;;5092329;28;20040;-75
2022/01/08 05:39:53;;;;;;;11.15;2.28;;;1.40;99.90;;;;;;5091891;28;20055;-75
2022/01/08 05:42:19;;;;;;;6.38;2.30;;;1.30;99.90;;;;;;5121286;27;20051;-75
2022/01/08 05:44:45;;;;;;;12.40;2.92;;;1.70;99.90;;;;;;5155258;27;20200;-75
2022/01/08 05:47:11;;;;;;;12.48;2.20;;;1.30;99.90;;;;;;5140255;27;20046;-75
2022/01/08 05:49:37;;;;;;;11.55;2.47;;;1.30;99.90;;;;;;5140252;27;20031;-75
2022/01/08 05:52:03;;;;;;;11.00;2.25;;;1.90;99.90;;;;;;5139363;27;20359;-75
2022/01/08 05:54:29;;;;;;;16.17;3.20;;;1.30;99.90;;;;;;5139821;27;20091;-75
2022/01/08 05:56:55;;;;;;;11.57;2.20;;;1.20;99.90;;;;;;5139709;27;20066;-75
2022/01/08 05:59:26;;;;;;;10.10;2.45;;;1.20;99.90;;;;;;5139165;27;20070;-75
2022/01/08 06:01:53;;;;;;;14.02;2.63;;;1.70;99.90;;;;;;5140242;27;20384;-75
2022/01/08 06:04:19;;;;;;;9.07;2.53;;;1.50;99.90;;;;;;5138775;27;20082;-75
2022/01/08 06:06:45;;;;;;;9.88;2.45;;;1.20;99.90;;;;;;5139714;27;20093;-75
2022/01/08 06:09:11;;;;;;;11.38;2.78;;;1.20;99.90;;;;;;5139671;27;20485;-75
2022/01/08 06:11:37;;;;;;;9.95;2.67;;;1.10;99.90;;;;;;5138494;27;20043;-75
2022/01/08 06:14:04;;;;;;;14.65;3.20;;;1.10;99.90;;;;;;5139716;27;20125;-75
2022/01/08 06:16:34;;;;;;;14.02;2.97;;;1.10;99.90;;;;;;5139682;27;20042;-75
2022/01/08 06:19:06;;;;;;;14.70;2.95;;;1.10;99.90;;;;;;5139046;27;20509;-75
2022/01/08 06:21:32;;;;;;;18.55;3.13;;;1.10;99.90;;;;;;5122411;27;20074;-75
2022/01/08 06:23:57;;;;;;;12.23;2.90;;;1.10;99.90;;;;;;5139177;27;20078;-75
2022/01/08 06:26:24;;;;;;;15.77;3.58;;;1.30;99.90;;;;;;5121325;27;20111;-75
2022/01/08 06:28:51;;;;;;;16.65;3.60;;;1.00;99.90;;;;;;5139311;27;20035;-75
2022/01/08 06:31:21;;;;;;;12.45;3.20;;;1.20;99.90;;;;;;5139331;27;20064;-75
2022/01/08 06:33:47;;;;;;;13.18;3.97;;;1.00;99.90;;;;;;5157078;27;20031;-75
2022/01/08 06:36:14;;;;;;;13.13;4.45;;;1.40;99.90;;;;;;5157669;27;20038;-75
2022/01/08 06:38:40;;;;;;;10.43;3.80;;;0.90;99.90;;;;;;5139415;27;20393;-75
2022/01/08 06:41:06;;;;;;;13.73;4.20;;;0.90;99.90;;;;;;5120579;27;20038;-75
2022/01/08 06:43:31;;;;;;;15.02;4.72;;;0.90;99.90;;;;;;5138553;27;20046;-75
2022/01/08 06:45:57;;;;;;;14.75;5.20;;;0.90;99.90;;;;;;5139015;27;20054;-75
2022/01/08 06:48:23;;;;;;;14.05;4.57;;;0.90;99.90;;;;;;5138064;27;20126;-75
2022/01/08 06:50:48;;;;;;;20.33;4.82;;;0.90;99.90;;;;;;5138707;27;20138;-74
2022/01/08 06:53:14;;;;;;;17.98;5.07;;;1.40;99.90;;;;;;5156842;27;20039;-75
2022/01/08 06:55:40;;;;;;;15.13;4.47;;;1.70;99.90;;;;;;5156241;27;20043;-75
2022/01/08 06:58:06;;;;;;;18.70;5.05;;;0.80;99.90;;;;;;5157307;27;20482;-74
2022/01/08 07:00:31;;;;;;;16.70;5.00;;;0.80;99.90;;;;;;5138009;27;20050;-74
2022/01/08 07:03:05;;;;;;;34.13;6.05;;;0.90;99.90;;;;;;5157367;27;20050;-75
2022/01/08 07:05:45;;;;;;;21.35;5.25;;;0.80;99.90;;;;;;5135502;27;20055;-75
2022/01/08 07:08:11;;;;;;;17.40;5.40;;;0.70;99.90;;;;;;5120899;27;20042;-75
2022/01/08 07:10:41;;;;;;;20.20;5.68;;;0.70;99.90;;;;;;5138683;27;20039;-75
2022/01/08 07:13:07;;;;;;;17.92;5.05;;;0.70;99.90;;;;;;5138358;27;20124;-75
2022/01/08 07:15:33;;;;;;;18.00;6.10;;;0.70;99.90;;;;;;5116691;27;20533;-75
2022/01/08 07:17:58;;;;;;;21.65;5.10;;;0.70;99.90;;;;;;5136307;27;20041;-75
2022/01/08 07:20:24;;;;;;;14.73;4.97;;;0.70;99.90;;;;;;5117812;27;20051;-75
2022/01/08 07:22:53;;;;;;;14.73;4.38;;;0.70;99.90;;;;;;5118927;27;20220;-75
2022/01/08 07:25:18;;;;;;;17.50;5.68;;;0.70;99.90;;;;;;5138226;27;20075;-75
2022/01/08 07:27:44;;;;;;;19.88;5.43;;;0.70;99.90;;;;;;5156346;27;20042;-75
2022/01/08 07:30:11;;;;;;;19.27;5.15;;;0.80;99.90;;;;;;5155895;27;20046;-74
2022/01/08 07:32:43;;;;;;;17.33;4.93;;;0.70;99.90;;;;;;5137975;27;20043;-74
2022/01/08 07:35:10;;;;;;;19.65;4.70;;;0.70;99.90;;;;;;5137903;27;20042;-74
2022/01/08 07:37:37;;;;;;;12.32;4.38;;;0.70;99.90;;;;;;5155786;27;20062;-74
2022/01/08 07:40:04;;;;;;;16.48;5.22;;;0.80;99.90;;;;;;5137643;27;20051;-74
2022/01/08 07:42:30;;;;;;;22.45;5.07;;;0.80;99.90;;;;;;5136616;27;20046;-74
2022/01/08 07:44:55;;;;;;;13.23;4.78;;;0.80;99.90;;;;;;5155906;27;20099;-74
2022/01/08 07:47:21;;;;;;;13.27;4.07;;;1.10;99.90;;;;;;5156088;27;20528;-74
2022/01/08 07:49:47;;;;;;;25.98;5.05;;;0.80;99.90;;;;;;5155536;27;20047;-74
2022/01/08 07:52:13;;;;;;;14.23;4.45;;;0.80;99.90;;;;;;5137714;27;20191;-74
2022/01/08 07:54:38;;;;;;;23.67;5.18;;;0.80;99.90;;;;;;5137039;27;20047;-74
2022/01/08 07:57:04;;;;;;;16.10;4.43;;;0.80;99.90;;;;;;5155264;27;20045;-74
2022/01/08 07:59:30;;;;;;;14.68;4.40;;;0.80;99.90;;;;;;5155801;27;20042;-73
2022/01/08 08:01:56;;;;;;;22.63;4.90;;;1.10;99.90;;;;;;5137299;27;20426;-74
2022/01/08 08:04:21;;;;;;;14.38;4.68;;;0.80;99.90;;;;;;5136441;27;20046;-74
2022/01/08 08:06:50;;;;;;;23.48;4.53;;;0.90;99.90;;;;;;5155182;27;20061;-74
2022/01/08 08:09:16;;;;;;;16.15;5.25;;;0.90;99.90;;;;;;5155655;27;20064;-74
2022/01/08 08:11:43;;;;;;;14.43;4.40;;;0.90;99.90;;;;;;5136158;27;20051;-75
2022/01/08 08:14:08;;;;;;;21.02;4.50;;;0.90;99.90;;;;;;5117850;27;20079;-74
2022/01/08 08:16:34;;;;;;;26.73;4.05;;;0.90;99.90;;;;;;5129835;27;20523;-74
2022/01/08 08:19:00;;;;;;;19.15;3.80;;;1.10;99.90;;;;;;5118054;27;20053;-74
2022/01/08 08:21:26;;;;;;;14.98;4.15;;;1.00;99.90;;;;;;5137212;27;20121;-74
2022/01/08 08:23:52;;;;;;;16.05;3.88;;;1.10;99.90;;;;;;5137394;27;20374;-74
2022/01/08 08:26:18;;;;;;;12.50;4.10;;;1.10;99.90;;;;;;5136424;27;20048;-75
2022/01/08 08:28:44;;;;;;;23.38;4.00;;;1.10;99.90;;;;;;5137127;27;20133;-74
2022/01/08 08:31:11;;;;;;;14.95;4.97;;;1.70;99.90;;;;;;5137237;27;20053;-75
2022/01/08 08:33:37;;;;;;;13.73;3.97;;;1.20;99.90;;;;;;5119420;27;20038;-74
2022/01/08 08:36:03;;;;;;;17.35;3.78;;;1.40;99.90;;;;;;5137069;27;20531;-75
2022/01/08 08:38:29;;;;;;;23.70;5.40;;;1.20;99.90;;;;;;5137053;27;20495;-74
2022/01/08 08:40:55;;;;;;;19.80;3.75;;;1.30;99.90;;;;;;5118828;27;20043;-74
2022/01/08 08:43:21;;;;;;;17.05;5.55;;;1.40;99.90;;;;;;5136846;27;20374;-74
2022/01/08 08:45:47;;;;;;;15.57;4.10;;;1.30;99.90;;;;;;5119260;27;20046;-75
2022/01/08 08:48:13;;;;;;;10.68;3.95;;;1.40;99.90;;;;;;5136592;27;20042;-74
2022/01/08 08:50:39;;;;;;;16.40;4.50;;;1.80;99.90;;;;;;5136935;27;20087;-74
2022/01/08 08:53:05;;;;;;;13.32;4.38;;;1.50;99.90;;;;;;5135368;27;20084;-74
2022/01/08 08:55:30;;;;;;;13.57;4.00;;;1.50;99.90;;;;;;5136720;27;20082;-75
2022/01/08 08:57:56;;;;;;;15.07;4.40;;;1.60;99.90;;;;;;5155370;27;20430;-74
2022/01/08 09:00:22;;;;;;;13.57;4.40;;;2.40;99.90;;;;;;5135973;27;20133;-74
2022/01/08 09:02:48;;;;;;;11.38;3.72;;;1.70;99.90;;;;;;5136656;27;20077;-74
2022/01/08 09:05:14;;;;;;;17.00;4.30;;;1.70;99.90;;;;;;5154951;27;20097;-74
2022/01/08 09:07:40;;;;;;;17.60;4.18;;;1.80;99.90;;;;;;5136091;27;20051;-74
2022/01/08 09:10:09;;;;;;;15.18;4.95;;;2.10;99.90;;;;;;5136724;27;20082;-74
2022/01/08 09:12:35;;;;;;;12.93;3.42;;;1.80;99.90;;;;;;5119275;27;20050;-74
2022/01/08 09:15:01;;;;;;;21.17;4.25;;;1.90;99.90;;;;;;5135593;27;20047;-74
2022/01/08 09:17:27;;;;;;;13.80;3.65;;;1.90;99.90;;;;;;5138558;27;20053;-74
2022/01/08 09:19:53;;;;;;;13.73;3.58;;;1.90;99.90;;;;;;5140716;27;20043;-74
2022/01/08 09:22:19;;;;;;;22.45;5.18;;;1.90;99.90;;;;;;5140307;27;20039;-74
2022/01/08 09:24:47;;;;;;;14.25;3.45;;;2.00;99.90;;;;;;5140328;27;20482;-74
2022/01/08 09:27:13;;;;;;;11.25;3.67;;;2.20;99.90;;;;;;5140601;27;20058;-74
2022/01/08 09:29:38;;;;;;;16.35;3.65;;;2.10;99.90;;;;;;5139628;27;20050;-74
2022/01/08 09:32:06;;;;;;;7.82;3.15;;;2.10;99.90;;;;;;5123260;27;20087;-74
2022/01/08 09:34:32;;;;;;;21.88;3.92;;;2.10;99.90;;;;;;5123319;27;20130;-74
2022/01/08 09:36:58;;;;;;;10.45;4.30;;;2.20;99.90;;;;;;5139103;27;20126;-75
2022/01/08 09:39:25;;;;;;;14.18;4.30;;;2.40;99.90;;;;;;5140219;27;20058;-74
2022/01/08 09:41:51;;;;;;;19.02;3.15;;;2.20;99.90;;;;;;5140286;27;20050;-74
2022/01/08 09:44:17;;;;;;;16.10;3.92;;;2.30;99.90;;;;;;5157543;27;20082;-74
2022/01/08 09:46:43;;;;;;;12.30;3.33;;;2.30;99.90;;;;;;5140406;27;20051;-74
2022/01/08 09:49:11;;;;;;;14.63;3.72;;;2.40;99.90;;;;;;5139334;27;20043;-75
2022/01/08 09:51:37;;;;;;;12.70;3.13;;;2.40;99.90;;;;;;5139957;27;20046;-74
2022/01/08 09:54:03;;;;;;;12.45;3.05;;;2.50;99.90;;;;;;5158894;27;20053;-75
2022/01/08 09:56:31;;;;;;;10.95;2.83;;;2.50;99.90;;;;;;5157613;27;20043;-74
2022/01/08 09:58:58;;;;;;;12.95;3.80;;;3.10;99.90;;;;;;5139999;27;20061;-75
2022/01/08 10:01:29;;;;;;;11.57;2.90;;;2.60;99.90;;;;;;5140134;27;20035;-74
2022/01/08 10:03:58;;;;;;;23.50;5.15;;;2.70;99.90;;;;;;5139060;27;20050;-74
2022/01/08 10:06:26;;;;;;;13.75;3.50;;;3.20;99.90;;;;;;5139661;27;20051;-74
2022/01/08 10:08:56;;;;;;;14.40;4.15;;;2.70;99.90;;;;;;5139638;27;20043;-74
2022/01/08 10:11:23;;;;;;;7.20;2.90;;;2.80;99.90;;;;;;5138664;27;20084;-74
2022/01/08 10:14:00;;;;;;;12.98;3.38;;;2.80;99.90;;;;;;5139865;27;20445;-74
2022/01/08 10:19:18;;;;;;;;;;;2.90;99.90;;;;;;5139100;27;20138;-74
2022/01/08 10:21:45;;;;;;;18.13;4.90;;;2.80;99.90;;;;;;5158122;27;19919;-74
2022/01/08 10:24:11;;;;;;;11.88;3.70;;;2.90;99.90;;;;;;5139678;27;20373;-74
2022/01/08 10:26:41;;;;;;;11.63;3.47;;;2.90;99.90;;;;;;5157206;27;20038;-74
2022/01/08 10:29:15;;;;;;;16.70;4.38;;;2.90;99.90;;;;;;5121312;27;20043;-74
2022/01/08 10:31:53;;;;;;;21.93;3.47;;;2.90;99.90;;;;;;5157168;27;20043;-74
2022/01/08 10:34:21;;;;;;;11.10;3.92;;;3.00;99.90;;;;;;5158143;27;20782;-74
2022/01/08 10:36:56;;;;;;;18.23;3.45;;;3.00;99.90;;;;;;5157672;27;20038;-74
2022/01/08 10:39:29;;;;;;;15.70;6.20;;;3.10;99.90;;;;;;5138277;27;20125;-74
2022/01/08 10:42:00;;;;;;;12.43;4.55;;;3.10;99.90;;;;;;5139098;27;20084;-74
2022/01/08 10:44:28;;;;;;;16.52;4.63;;;3.10;99.90;;;;;;5138842;27;20047;-74
2022/01/08 10:47:00;;;;;;;13.00;3.83;;;3.20;99.90;;;;;;5138019;27;20046;-74
2022/01/08 10:49:38;;;;;;;17.48;4.53;;;3.20;99.90;;;;;;5121974;27;20049;-74
2022/01/08 10:52:06;;;;;;;18.92;4.25;;;3.30;99.90;;;;;;5138842;27;20492;-74
2022/01/08 10:54:38;;;;;;;13.75;4.47;;;3.30;99.90;;;;;;5138268;27;20427;-74
2022/01/08 10:57:07;;;;;;;16.55;4.30;;;3.30;99.90;;;;;;5138692;27;20478;-74
2022/01/08 10:59:34;;;;;;;13.02;4.00;;;3.30;99.90;;;;;;5156403;27;20057;-74
2022/01/08 11:02:07;;;;;;;12.15;4.55;;;3.40;99.90;;;;;;5138948;27;20045;-74
2022/01/08 11:04:39;;;;;;;9.57;3.97;;;3.40;99.90;;;;;;5138497;27;20138;-74
2022/01/08 11:07:12;;;;;;;18.40;4.28;;;4.10;99.90;;;;;;5137964;27;20062;-74
2022/01/08 11:09:41;;;;;;;9.48;4.15;;;3.40;99.90;;;;;;5138569;27;20039;-74
2022/01/08 11:12:11;;;;;;;12.70;4.05;;;3.50;99.90;;;;;;5138859;27;20046;-73
2022/01/08 11:17:29;;;;;;;16.90;4.63;;;3.50;99.90;;;;;;5138626;27;20069;-73
2022/01/08 11:19:59;;;;;;;18.02;3.83;;;3.50;99.90;;;;;;5138677;27;20382;-73
2022/01/08 11:22:27;;;;;;;12.32;4.28;;;3.70;99.90;;;;;;5137625;27;20046;-73
2022/01/08 11:25:09;;;;;;;22.25;4.57;;;3.60;99.90;;;;;;5156776;27;20046;-73
2022/01/08 11:27:35;;;;;;;21.60;4.80;;;3.60;99.90;;;;;;5137449;27;20107;-73
2022/01/08 11:30:14;;;;;;;21.30;4.60;;;3.60;99.90;;;;;;5156847;27;20034;-74
2022/01/08 11:32:40;;;;;;;15.98;5.05;;;3.70;99.90;;;;;;5156611;27;20044;-73
2022/01/08 11:35:10;;;;;;;10.32;4.53;;;3.80;99.90;;;;;;5137512;27;20109;-74
2022/01/08 11:37:36;;;;;;;11.50;4.78;;;3.70;99.90;;;;;;5156580;27;20133;-73
2022/01/08 11:40:05;;;;;;;17.35;5.35;;;3.70;99.90;;;;;;5138160;27;20078;-73
2022/01/08 11:42:38;;;;;;;14.38;5.15;;;3.80;99.90;;;;;;5137316;27;20088;-73
2022/01/08 11:45:06;;;;;;;9.43;4.70;;;3.90;99.90;;;;;;5117069;27;20094;-73
2022/01/08 11:47:32;;;;;;;20.58;5.72;;;3.90;99.90;;;;;;5134664;27;20042;-73
2022/01/08 11:50:00;;;;;;;11.43;5.28;;;3.90;99.90;;;;;;5133729;27;20050;-73
2022/01/08 11:52:27;;;;;;;12.93;5.88;;;3.90;99.90;;;;;;5134111;27;20068;-74
2022/01/08 11:54:53;;;;;;;11.23;5.32;;;3.90;99.90;;;;;;5134214;27;20047;-73
2022/01/08 11:57:24;;;;;;;15.23;5.10;;;3.90;99.90;;;;;;5133216;27;20043;-73
2022/01/08 11:59:58;;;;;;;13.48;5.03;;;3.90;99.90;;;;;;5134242;27;20058;-73
2022/01/08 12:02:50;;;;;;;;;;;3.90;99.90;;;;;;5134824;27;20043;-73
2022/01/08 12:05:27;;;;;;;10.70;5.15;;;3.90;99.90;;;;;;5129018;27;19972;-73
2022/01/08 12:08:14;;;;;;;8.40;4.70;;;4.00;99.90;;;;;;5134036;27;20047;-73
2022/01/08 12:10:56;;;;;;;18.70;5.63;;;4.00;99.90;;;;;;5134338;27;20405;-73
2022/01/08 12:13:46;;;;;;;11.15;5.22;;;4.00;99.90;;;;;;5135305;27;20039;-73
2022/01/08 12:16:49;;;;;;;15.30;5.65;;;4.00;99.90;;;;;;5133801;27;20501;-73
2022/01/08 12:19:28;;;;;;;16.52;6.20;;;4.00;99.90;;;;;;5034915;28;20052;-73
2022/01/08 12:21:54;;;;;;;13.77;6.13;;;4.10;99.90;;;;;;5123040;27;20047;-73
2022/01/08 12:24:25;;;;;;;13.52;6.88;;;4.10;99.90;;;;;;5134064;27;20039;-74
2022/01/08 12:26:52;;;;;;;14.55;6.72;;;4.10;99.90;;;;;;5135082;27;20047;-74
2022/01/08 12:29:35;;;;;;;9.82;5.88;;;4.40;99.90;;;;;;5134106;27;20046;-74
2022/01/08 12:32:21;;;;;;;11.85;6.13;;;4.10;99.90;;;;;;5134124;27;20039;-74
2022/01/08 12:34:51;;;;;;;14.65;7.35;;;4.10;99.90;;;;;;5133797;27;20039;-73
2022/01/08 12:37:18;;;;;;;16.80;6.82;;;4.10;99.90;;;;;;5133754;27;20055;-74
2022/01/08 12:39:51;;;;;;;17.23;8.23;;;4.10;99.90;;;;;;5132535;27;20055;-74
2022/01/08 12:42:38;;;;;;;16.13;7.63;;;4.50;99.90;;;;;;5133370;27;20039;-73
2022/01/08 12:45:07;;;;;;;19.52;9.45;;;4.20;99.90;;;;;;5132358;27;20061;-73
2022/01/08 12:47:47;;;;;;;14.40;8.15;;;4.10;99.90;;;;;;5133428;27;20099;-74
2022/01/08 12:50:17;;;;;;;15.75;8.05;;;4.20;99.90;;;;;;5133405;27;20039;-73
2022/01/08 12:53:05;;;;;;;12.63;9.10;;;4.20;99.90;;;;;;5132048;27;20127;-73
2022/01/08 12:55:36;;;;;;;21.92;9.48;;;4.10;99.90;;;;;;5133259;27;20050;-73
2022/01/08 12:58:11;;;;;;;13.05;9.60;;;4.10;99.90;;;;;;5116225;28;20078;-73
2022/01/08 13:00:54;;;;;;;20.48;10.07;;;4.00;99.90;;;;;;5132318;28;20039;-73
2022/01/08 13:03:26;;;;;;;17.33;10.18;;;4.00;99.90;;;;;;5116191;28;20047;-73
2022/01/08 13:05:52;;;;;;;16.85;10.80;;;4.00;99.90;;;;;;5115871;28;20061;-73
2022/01/08 13:08:25;;;;;;;19.00;12.80;;;4.00;99.90;;;;;;5132613;28;20363;-73
2022/01/08 13:10:56;;;;;;;23.15;10.68;;;3.90;99.90;;;;;;5133476;28;20043;-73
2022/01/08 13:13:24;;;;;;;20.35;11.23;;;4.10;99.90;;;;;;5132623;28;20611;-74
2022/01/08 13:15:54;;;;;;;17.00;10.35;;;3.90;99.90;;;;;;5133006;28;20051;-73
2022/01/08 13:18:24;;;;;;;16.58;11.88;;;3.90;99.90;;;;;;5133193;28;20043;-74
2022/01/08 13:21:02;;;;;;;18.13;9.80;;;3.90;99.90;;;;;;5132246;28;20510;-73
2022/01/08 13:23:28;;;;;;;20.20;9.98;;;3.90;99.90;;;;;;5133154;28;20416;-74